Time;durP1;ratioP1;P1;durP2;ratioP2;P2;SDS_P1;SDS_P2;PMS_P1;PMS_P2;Temp;Humidity;BMP_temperature;BMP_pressure;BME280_temperature;BME280_humidity;BME280_pressure;Samples;Min_cycle;Max_cycle;Signal;HPM_P1;HPM_P2
2022/04/27 00:02:18;;;;;;;2.72;1.85;;;21.20;39.00;;;;;;4937832;28;20043;-62
2022/04/27 00:04:44;;;;;;;2.08;1.55;;;21.20;39.00;;;;;;4952225;28;20471;-62
2022/04/27 00:07:10;;;;;;;2.10;1.40;;;21.20;39.00;;;;;;4940663;29;20051;-62
2022/04/27 00:09:36;;;;;;;1.50;1.40;;;21.20;39.00;;;;;;4939337;29;20630;-63
2022/04/27 00:12:02;;;;;;;1.88;1.55;;;21.10;38.90;;;;;;4952559;28;20170;-62
2022/04/27 00:14:32;;;;;;;2.15;1.52;;;21.10;39.00;;;;;;4941359;29;20055;-62
2022/04/27 00:16:58;;;;;;;2.08;1.38;;;21.10;39.00;;;;;;4939933;29;20066;-63
2022/04/27 00:19:27;;;;;;;1.88;1.77;;;21.10;39.00;;;;;;4937879;29;20066;-63
2022/04/27 00:21:53;;;;;;;2.47;1.65;;;21.10;38.90;;;;;;4940124;29;20047;-62
2022/04/27 00:24:19;;;;;;;2.60;1.60;;;21.10;38.90;;;;;;4938562;28;20380;-63
2022/04/27 00:26:45;;;;;;;1.65;1.30;;;21.10;38.90;;;;;;4939351;28;20500;-63
2022/04/27 00:29:11;;;;;;;2.50;1.58;;;21.10;38.90;;;;;;4952945;28;20928;-62
2022/04/27 00:31:37;;;;;;;1.92;1.55;;;21.10;38.80;;;;;;4940426;29;20056;-62
2022/04/27 00:34:03;;;;;;;1.80;1.63;;;21.10;38.80;;;;;;4940371;29;20054;-62
2022/04/27 00:36:31;;;;;;;1.77;1.50;;;21.10;38.80;;;;;;4951931;28;20048;-63
2022/04/27 00:38:57;;;;;;;3.15;1.55;;;21.10;38.80;;;;;;4937986;28;20393;-63
2022/04/27 00:41:23;;;;;;;1.75;1.65;;;21.10;38.70;;;;;;4953354;28;20060;-62
2022/04/27 00:43:48;;;;;;;2.15;1.55;;;21.00;38.70;;;;;;4954131;28;20055;-62
2022/04/27 00:46:14;;;;;;;1.60;1.50;;;21.00;38.70;;;;;;4950176;28;20051;-63
2022/04/27 00:48:41;;;;;;;1.67;1.55;;;21.00;38.60;;;;;;4937444;28;20048;-63
2022/04/27 00:51:12;;;;;;;2.47;1.70;;;21.00;38.60;;;;;;4968692;28;20062;-62
2022/04/27 00:53:40;;;;;;;2.33;1.27;;;21.00;38.60;;;;;;4939183;29;20051;-62
2022/04/27 00:56:06;;;;;;;1.60;1.50;;;21.00;38.50;;;;;;4970699;28;20716;-62
2022/04/27 00:58:32;;;;;;;1.83;1.50;;;21.00;38.60;;;;;;4936498;28;20047;-62
2022/04/27 01:00:57;;;;;;;4.13;1.67;;;21.00;38.50;;;;;;4969679;28;20047;-63
2022/04/27 01:03:23;;;;;;;3.85;1.98;;;21.00;38.50;;;;;;4936266;28;20051;-62
2022/04/27 01:05:49;;;;;;;2.13;1.70;;;21.00;38.50;;;;;;4937378;28;20039;-62
2022/04/27 01:08:21;;;;;;;2.30;2.10;;;20.90;38.40;;;;;;4967919;28;20538;-63
2022/04/27 01:10:48;;;;;;;3.35;2.10;;;20.90;38.40;;;;;;4951222;28;20066;-62
2022/04/27 01:13:15;;;;;;;2.78;1.85;;;20.90;38.40;;;;;;4939031;29;20388;-62
2022/04/27 01:15:40;;;;;;;2.47;1.90;;;20.90;38.40;;;;;;4937551;29;20055;-62
2022/04/27 01:18:09;;;;;;;2.60;1.80;;;20.90;38.30;;;;;;4939060;28;20047;-63
2022/04/27 01:20:45;;;;;;;2.45;1.80;;;20.90;38.30;;;;;;4968514;28;20043;-62
2022/04/27 01:23:15;;;;;;;2.20;1.85;;;20.90;38.20;;;;;;4953257;28;20130;-62
2022/04/27 01:25:54;;;;;;;3.50;2.15;;;20.90;38.30;;;;;;4937282;29;20050;-62
2022/04/27 01:28:22;;;;;;;1.75;1.65;;;20.90;38.20;;;;;;4968792;28;20054;-62
2022/04/27 01:30:55;;;;;;;2.45;2.00;;;20.80;38.20;;;;;;4936485;29;20098;-63
2022/04/27 01:33:21;;;;;;;3.35;1.98;;;20.80;38.10;;;;;;4929399;29;20086;-62
2022/04/27 01:35:46;;;;;;;2.92;1.75;;;20.80;38.10;;;;;;4937514;29;20472;-63
2022/04/27 01:38:12;;;;;;;3.05;1.85;;;20.80;38.10;;;;;;4938404;29;20055;-63
2022/04/27 01:40:38;;;;;;;2.63;1.73;;;20.80;38.10;;;;;;4937670;28;20070;-63
2022/04/27 01:43:04;;;;;;;3.13;1.73;;;20.80;38.10;;;;;;4967866;28;20737;-62
2022/04/27 01:45:29;;;;;;;2.28;1.70;;;20.80;38.00;;;;;;4937506;29;20571;-62
2022/04/27 01:47:55;;;;;;;1.88;1.63;;;20.80;38.10;;;;;;4939003;29;20043;-62
2022/04/27 01:50:21;;;;;;;2.78;1.90;;;20.80;38.10;;;;;;4938968;29;20098;-63
2022/04/27 01:55:30;;;;;;;2.30;1.92;;;20.80;38.00;;;;;;4937182;29;20106;-62
2022/04/27 01:57:56;;;;;;;2.85;2.05;;;20.70;38.00;;;;;;4937031;29;20044;-63
2022/04/27 02:00:22;;;;;;;3.88;1.73;;;20.70;38.00;;;;;;4935450;29;20062;-63
2022/04/27 02:02:48;;;;;;;2.30;1.83;;;20.80;38.10;;;;;;4930166;28;20047;-62
2022/04/27 02:05:14;;;;;;;2.85;1.95;;;20.70;38.00;;;;;;4936419;29;20055;-62
2022/04/27 02:07:40;;;;;;;2.17;1.90;;;20.70;38.00;;;;;;4951928;28;20043;-63
2022/04/27 02:10:06;;;;;;;2.33;1.73;;;20.70;38.00;;;;;;4935112;28;20054;-62
2022/04/27 02:12:32;;;;;;;2.38;1.73;;;20.70;37.90;;;;;;4936634;29;20497;-62
2022/04/27 02:14:58;;;;;;;2.08;1.80;;;20.70;38.00;;;;;;4936655;28;20063;-63
2022/04/27 02:17:24;;;;;;;1.98;1.50;;;20.70;37.90;;;;;;4938910;29;20050;-63
2022/04/27 02:19:50;;;;;;;2.78;2.10;;;20.70;38.00;;;;;;4932505;29;20046;-63
2022/04/27 02:22:15;;;;;;;1.52;1.42;;;20.70;37.90;;;;;;4936340;28;20043;-63
2022/04/27 02:24:41;;;;;;;1.60;1.50;;;20.70;37.90;;;;;;4950139;28;20047;-63
2022/04/27 02:27:07;;;;;;;3.20;1.70;;;20.60;37.80;;;;;;4933704;29;20122;-62
2022/04/27 02:29:32;;;;;;;3.22;2.00;;;20.60;37.80;;;;;;4935323;28;20097;-63
2022/04/27 02:31:58;;;;;;;3.17;1.70;;;20.60;37.80;;;;;;4932666;29;20071;-63
2022/04/27 02:34:23;;;;;;;3.45;1.67;;;20.60;37.80;;;;;;4936400;28;20123;-63
2022/04/27 02:36:49;;;;;;;2.90;1.60;;;20.60;37.80;;;;;;4951057;28;20048;-61
2022/04/27 02:39:14;;;;;;;2.72;1.75;;;20.60;37.80;;;;;;4934492;29;20628;-63
2022/04/27 02:41:41;;;;;;;1.65;1.50;;;20.60;37.80;;;;;;4934728;29;20075;-62
2022/04/27 02:44:07;;;;;;;2.10;1.73;;;20.60;37.80;;;;;;4934492;29;20059;-62
2022/04/27 02:46:32;;;;;;;2.00;1.77;;;20.60;37.80;;;;;;4949099;28;20055;-62
2022/04/27 02:51:51;;;;;;;3.03;1.75;;;20.60;37.80;;;;;;4934471;28;20051;-62
2022/04/27 02:54:21;;;;;;;2.45;1.90;;;20.50;37.70;;;;;;4940770;29;20054;-62
2022/04/27 02:56:48;;;;;;;1.70;1.60;;;20.60;37.80;;;;;;4949239;28;20067;-63
2022/04/27 02:59:14;;;;;;;2.47;1.75;;;20.50;37.70;;;;;;4937230;29;20491;-63
2022/04/27 03:01:41;;;;;;;2.13;1.70;;;20.50;37.70;;;;;;4936737;28;20943;-63
2022/04/27 03:04:07;;;;;;;2.83;1.80;;;20.50;37.70;;;;;;4938494;29;20130;-63
2022/04/27 03:06:33;;;;;;;1.73;1.63;;;20.50;37.70;;;;;;4940534;29;20596;-62
2022/04/27 03:08:58;;;;;;;1.73;1.60;;;20.50;37.70;;;;;;4936328;29;20043;-63
2022/04/27 03:11:24;;;;;;;2.90;1.80;;;20.50;37.70;;;;;;4937858;29;20039;-63
2022/04/27 03:13:50;;;;;;;2.38;1.80;;;20.50;37.70;;;;;;4935772;29;20137;-62
2022/04/27 03:16:15;;;;;;;3.05;1.70;;;20.50;37.70;;;;;;4936234;28;20082;-62
2022/04/27 03:18:42;;;;;;;1.90;1.70;;;20.50;37.70;;;;;;4937376;28;20054;-63
2022/04/27 03:21:12;;;;;;;1.67;1.58;;;20.50;37.70;;;;;;4935305;29;20055;-62
2022/04/27 03:23:37;;;;;;;2.95;1.63;;;20.50;37.80;;;;;;4951151;28;20051;-62
2022/04/27 03:26:03;;;;;;;1.67;1.50;;;20.40;37.70;;;;;;4936136;28;20106;-63
2022/04/27 03:28:29;;;;;;;2.28;2.00;;;20.50;37.70;;;;;;4965195;28;20051;-63
2022/04/27 03:30:55;;;;;;;3.17;1.73;;;20.50;37.80;;;;;;4932122;29;20055;-63
2022/04/27 03:33:21;;;;;;;2.20;1.75;;;20.40;37.80;;;;;;4936740;28;20141;-62
2022/04/27 03:35:47;;;;;;;2.63;1.70;;;20.40;37.70;;;;;;4936119;28;20047;-63
2022/04/27 03:38:14;;;;;;;2.08;1.67;;;20.40;37.70;;;;;;4940315;29;20048;-62
2022/04/27 03:40:41;;;;;;;2.33;1.80;;;20.40;37.70;;;;;;4936647;28;20055;-63
2022/04/27 03:43:07;;;;;;;1.83;1.60;;;20.40;37.70;;;;;;4939122;29;20051;-63
2022/04/27 03:45:33;;;;;;;2.83;1.55;;;20.40;37.80;;;;;;4938226;28;20758;-63
2022/04/27 03:47:59;;;;;;;3.63;1.60;;;20.40;37.80;;;;;;4936745;29;20062;-62
2022/04/27 03:50:25;;;;;;;1.88;1.70;;;20.40;37.80;;;;;;4936702;29;20820;-63
2022/04/27 03:52:51;;;;;;;1.98;1.60;;;20.40;37.80;;;;;;4937022;29;20496;-62
2022/04/27 03:55:17;;;;;;;2.00;1.80;;;20.40;37.80;;;;;;4950842;28;20082;-62
2022/04/27 03:57:43;;;;;;;2.45;1.77;;;20.40;37.80;;;;;;4935834;29;20381;-62
2022/04/27 04:00:10;;;;;;;3.03;1.75;;;20.40;37.80;;;;;;4934035;28;20062;-61
2022/04/27 04:02:39;;;;;;;2.00;1.77;;;20.50;37.90;;;;;;4933050;28;20044;-62
2022/04/27 04:05:05;;;;;;;2.05;1.80;;;20.40;37.80;;;;;;4933156;29;20075;-62
2022/04/27 04:07:32;;;;;;;2.17;1.70;;;20.40;37.80;;;;;;4935626;28;20048;-63
2022/04/27 04:09:57;;;;;;;1.83;1.73;;;20.40;37.80;;;;;;4948934;28;20043;-62
2022/04/27 04:12:23;;;;;;;2.42;1.73;;;20.40;37.90;;;;;;4933081;29;20048;-62
2022/04/27 04:14:48;;;;;;;2.20;1.50;;;20.40;37.90;;;;;;4936144;28;20059;-63
2022/04/27 04:17:14;;;;;;;2.03;1.83;;;20.40;37.90;;;;;;4935756;29;20048;-62
2022/04/27 04:19:40;;;;;;;3.33;2.05;;;20.30;37.80;;;;;;4932090;29;20047;-63
2022/04/27 04:22:08;;;;;;;2.72;1.92;;;20.30;37.80;;;;;;4935010;29;20058;-62
2022/04/27 04:24:34;;;;;;;2.05;1.60;;;20.30;37.90;;;;;;4956779;28;20785;-62
2022/04/27 04:29:43;;;;;;;3.22;1.85;;;20.30;37.80;;;;;;4962478;28;20126;-63
2022/04/27 04:32:09;;;;;;;2.60;1.80;;;20.30;37.80;;;;;;4935301;29;20067;-62
2022/04/27 04:34:35;;;;;;;1.90;1.80;;;20.30;37.90;;;;;;4935501;29;20045;-62
2022/04/27 04:37:01;;;;;;;2.72;1.63;;;20.30;37.90;;;;;;4934829;28;20455;-63
2022/04/27 04:39:27;;;;;;;2.13;1.92;;;20.30;37.90;;;;;;4939619;29;20071;-63
2022/04/27 04:41:52;;;;;;;2.38;1.88;;;20.30;37.90;;;;;;4952524;28;20059;-63
2022/04/27 04:44:18;;;;;;;1.88;1.67;;;20.30;38.00;;;;;;4938415;28;20059;-62
2022/04/27 04:46:44;;;;;;;2.03;1.85;;;20.30;37.90;;;;;;4944832;29;20053;-64
2022/04/27 04:49:09;;;;;;;2.20;2.00;;;20.30;38.00;;;;;;4953599;28;20059;-63
2022/04/27 04:51:35;;;;;;;2.00;1.90;;;20.30;37.90;;;;;;4935809;29;20077;-63
2022/04/27 04:54:02;;;;;;;2.40;1.60;;;20.30;38.00;;;;;;4938182;28;20130;-63
2022/04/27 04:56:27;;;;;;;2.58;1.52;;;20.30;38.00;;;;;;4939543;28;20077;-63
2022/04/27 04:58:53;;;;;;;2.60;1.95;;;20.20;38.00;;;;;;4939351;28;20079;-62
2022/04/27 05:01:18;;;;;;;2.38;1.73;;;20.30;38.10;;;;;;4938859;29;20741;-63
2022/04/27 05:03:44;;;;;;;2.22;1.95;;;20.20;38.00;;;;;;4938305;28;20666;-63
2022/04/27 05:06:09;;;;;;;3.88;2.10;;;20.20;38.10;;;;;;4938660;29;20126;-62
2022/04/27 05:08:35;;;;;;;2.30;2.10;;;20.20;38.10;;;;;;4938225;28;20039;-63
2022/04/27 05:11:00;;;;;;;1.80;1.70;;;20.20;38.10;;;;;;4945280;29;20054;-62
2022/04/27 05:13:26;;;;;;;1.90;1.80;;;20.20;38.10;;;;;;4936510;28;20051;-63
2022/04/27 05:15:52;;;;;;;2.13;1.92;;;20.20;38.10;;;;;;4939309;29;20043;-63
2022/04/27 05:18:20;;;;;;;2.70;1.75;;;20.20;38.10;;;;;;4936847;29;20126;-63
2022/04/27 05:20:45;;;;;;;2.13;1.90;;;20.20;38.20;;;;;;4951949;28;20055;-62
2022/04/27 05:23:11;;;;;;;2.05;1.80;;;20.20;38.10;;;;;;4937354;29;20082;-62
2022/04/27 05:25:37;;;;;;;2.25;1.60;;;20.20;38.10;;;;;;4938118;29;20047;-63
2022/04/27 05:28:03;;;;;;;2.53;1.75;;;20.20;38.30;;;;;;4969783;28;20114;-62
2022/04/27 05:33:16;;;;;;;2.97;1.80;;;20.20;38.20;;;;;;4968758;28;20055;-62
2022/04/27 05:35:42;;;;;;;1.92;1.70;;;20.20;38.30;;;;;;4953477;28;20158;-62
2022/04/27 05:38:08;;;;;;;4.00;1.80;;;20.20;38.60;;;;;;4970883;28;20032;-62
2022/04/27 05:40:35;;;;;;;2.85;1.80;;;20.20;38.40;;;;;;4936437;29;20054;-62
2022/04/27 05:43:05;;;;;;;3.17;1.80;;;20.20;38.30;;;;;;4969525;28;20427;-63
2022/04/27 05:45:33;;;;;;;2.20;1.90;;;20.20;38.30;;;;;;4938058;28;20063;-63
2022/04/27 05:48:00;;;;;;;2.13;1.83;;;20.20;38.30;;;;;;4937303;29;20051;-62
2022/04/27 05:50:25;;;;;;;2.50;1.70;;;20.20;38.40;;;;;;4935329;29;20035;-63
2022/04/27 05:52:54;;;;;;;2.55;2.05;;;20.20;38.40;;;;;;4938798;29;20043;-62
2022/04/27 05:55:20;;;;;;;1.77;1.65;;;20.20;39.10;;;;;;4938178;29;20051;-62
2022/04/27 05:57:45;;;;;;;2.08;1.50;;;20.20;38.50;;;;;;4937905;29;20054;-63
2022/04/27 06:00:12;;;;;;;1.85;1.60;;;20.20;38.40;;;;;;4938774;28;20051;-62
2022/04/27 06:02:40;;;;;;;2.50;1.80;;;20.20;38.50;;;;;;4939304;28;20082;-63
2022/04/27 06:05:07;;;;;;;2.17;1.50;;;20.20;38.50;;;;;;4938716;29;20074;-62
2022/04/27 06:07:36;;;;;;;2.00;1.60;;;20.20;38.50;;;;;;4939039;29;20490;-62
2022/04/27 06:10:10;;;;;;;2.20;1.60;;;20.20;38.50;;;;;;4950387;28;20530;-63
2022/04/27 06:12:42;;;;;;;2.92;1.80;;;20.30;38.60;;;;;;4938072;29;20051;-64
2022/04/27 06:15:13;;;;;;;1.58;1.48;;;20.20;38.60;;;;;;4936885;29;20756;-63
2022/04/27 06:17:39;;;;;;;2.85;1.65;;;20.20;38.70;;;;;;5003685;23;20124;-81
2022/04/27 06:20:05;;;;;;;2.28;1.67;;;20.20;38.70;;;;;;5015234;28;20058;-82
2022/04/27 06:22:31;;;;;;;2.00;1.70;;;20.30;39.00;;;;;;4986568;28;20076;-82
2022/04/27 06:24:56;;;;;;;3.55;1.70;;;20.30;39.20;;;;;;5015099;28;20069;-82
2022/04/27 06:27:23;;;;;;;3.05;1.55;;;20.30;39.30;;;;;;5000964;28;20037;-82
2022/04/27 06:29:49;;;;;;;2.03;1.65;;;20.30;39.40;;;;;;4980303;28;20045;-83
2022/04/27 06:32:15;;;;;;;2.92;2.03;;;20.30;39.20;;;;;;4978596;28;20496;-83
2022/04/27 06:34:40;;;;;;;2.10;1.90;;;20.30;39.10;;;;;;4982509;28;20060;-83
2022/04/27 06:37:06;;;;;;;3.10;2.00;;;20.30;39.00;;;;;;4986993;28;20081;-84
2022/04/27 06:39:31;;;;;;;2.33;1.80;;;20.30;39.00;;;;;;4997812;28;20511;-83
2022/04/27 06:41:57;;;;;;;2.42;2.00;;;20.30;38.90;;;;;;4997536;28;20034;-83
2022/04/27 06:44:23;;;;;;;2.55;1.90;;;20.20;38.90;;;;;;4982150;28;20049;-84
2022/04/27 06:46:48;;;;;;;4.10;2.00;;;20.30;39.00;;;;;;4985369;28;20034;-83
2022/04/27 06:49:14;;;;;;;2.63;1.60;;;20.20;39.00;;;;;;4983332;28;20046;-81
2022/04/27 06:51:40;;;;;;;3.35;1.70;;;20.20;39.00;;;;;;4982774;28;20053;-80
2022/04/27 06:54:05;;;;;;;3.00;2.10;;;20.30;39.10;;;;;;4998365;28;20046;-80
2022/04/27 06:56:31;;;;;;;2.60;2.05;;;20.20;39.30;;;;;;4979525;28;20042;-80
2022/04/27 06:58:57;;;;;;;4.63;1.70;;;20.30;39.40;;;;;;4994984;28;20080;-80
2022/04/27 07:01:22;;;;;;;3.60;2.00;;;20.30;40.40;;;;;;4994784;28;20042;-80
2022/04/27 07:03:54;;;;;;;2.95;1.90;;;20.30;40.00;;;;;;4994366;28;20038;-80
2022/04/27 07:06:20;;;;;;;2.17;1.80;;;20.30;40.20;;;;;;4991031;28;20783;-80
2022/04/27 07:08:46;;;;;;;5.50;2.08;;;20.40;40.40;;;;;;4991451;28;20088;-80
2022/04/27 07:11:11;;;;;;;3.15;2.65;;;20.30;40.30;;;;;;4973429;28;20129;-82
2022/04/27 07:13:37;;;;;;;7.38;2.60;;;20.40;40.20;;;;;;4988598;28;20453;-79
2022/04/27 07:16:04;;;;;;;5.00;2.50;;;20.40;40.10;;;;;;4980750;28;20141;-81
2022/04/27 07:18:31;;;;;;;4.20;2.25;;;20.40;40.30;;;;;;4989369;28;20041;-79
2022/04/27 07:20:58;;;;;;;5.32;2.30;;;20.40;40.50;;;;;;4991896;28;20034;-80
2022/04/27 07:23:24;;;;;;;3.60;2.05;;;20.40;40.50;;;;;;4991384;28;20044;-79
2022/04/27 07:25:50;;;;;;;2.58;1.85;;;20.50;40.70;;;;;;4993267;28;20126;-79
2022/04/27 07:28:16;;;;;;;5.15;2.28;;;20.50;40.60;;;;;;4991976;28;20121;-80
2022/04/27 07:30:42;;;;;;;6.88;2.17;;;20.50;40.60;;;;;;4989907;28;20148;-80
2022/04/27 07:33:07;;;;;;;4.63;2.20;;;20.50;40.70;;;;;;4993082;28;20057;-82
2022/04/27 07:35:33;;;;;;;2.95;2.42;;;20.50;40.80;;;;;;4977689;28;20034;-80
2022/04/27 07:37:58;;;;;;;2.85;2.22;;;20.50;40.70;;;;;;4987688;28;20124;-80
2022/04/27 07:40:24;;;;;;;2.63;2.30;;;20.50;40.80;;;;;;4993158;28;20074;-80
2022/04/27 07:42:49;;;;;;;3.25;2.10;;;20.50;40.80;;;;;;4991277;28;20038;-81
2022/04/27 07:45:15;;;;;;;3.78;2.38;;;20.50;40.80;;;;;;4992195;28;20046;-81
2022/04/27 07:47:43;;;;;;;2.20;1.52;;;20.50;40.90;;;;;;4991309;28;20042;-81
2022/04/27 07:50:10;;;;;;;2.15;1.95;;;20.50;40.90;;;;;;4991965;28;20156;-82
2022/04/27 07:52:36;;;;;;;2.05;1.60;;;20.50;40.90;;;;;;4975982;28;20042;-81
2022/04/27 07:55:03;;;;;;;2.47;1.85;;;20.50;40.90;;;;;;4976167;28;20043;-81
2022/04/27 07:57:30;;;;;;;6.20;1.75;;;20.60;40.90;;;;;;5008820;28;20042;-81
2022/04/27 07:59:56;;;;;;;5.25;2.47;;;20.60;41.00;;;;;;4991165;28;20099;-80
2022/04/27 08:02:22;;;;;;;2.58;2.00;;;20.60;41.10;;;;;;4974410;28;20358;-80
2022/04/27 08:04:47;;;;;;;2.83;1.80;;;20.60;41.10;;;;;;4992127;28;20191;-80
2022/04/27 08:07:13;;;;;;;3.72;1.90;;;20.60;41.10;;;;;;4980865;28;20166;-80
2022/04/27 08:09:38;;;;;;;5.30;1.95;;;20.60;41.10;;;;;;4990236;28;20042;-81
2022/04/27 08:12:04;;;;;;;1.70;1.50;;;20.60;41.30;;;;;;4981357;28;20050;-82
2022/04/27 08:14:31;;;;;;;3.03;1.98;;;20.60;41.20;;;;;;4996548;28;20045;-82
2022/04/27 08:16:59;;;;;;;2.67;2.05;;;20.60;41.20;;;;;;4993982;28;20113;-81
2022/04/27 08:19:25;;;;;;;2.55;1.40;;;20.60;41.20;;;;;;4996129;28;20052;-81
2022/04/27 08:21:50;;;;;;;3.35;1.70;;;20.60;41.20;;;;;;4996333;28;20501;-82
2022/04/27 08:24:19;;;;;;;2.05;1.60;;;20.60;41.10;;;;;;4993470;28;20050;-81
2022/04/27 08:26:45;;;;;;;2.00;1.80;;;20.60;41.00;;;;;;4994822;28;20134;-81
2022/04/27 08:29:11;;;;;;;4.32;1.98;;;20.60;41.10;;;;;;4994235;28;20045;-81
2022/04/27 08:31:37;;;;;;;1.98;1.52;;;20.60;41.00;;;;;;5000060;28;20099;-82
2022/04/27 08:34:03;;;;;;;2.00;1.52;;;20.70;41.20;;;;;;4994536;28;20129;-81
2022/04/27 08:36:28;;;;;;;2.80;1.38;;;20.60;42.00;;;;;;4997613;28;20048;-81
2022/04/27 08:38:54;;;;;;;2.50;1.50;;;20.60;41.20;;;;;;4977509;28;20118;-82
2022/04/27 08:41:20;;;;;;;2.80;1.58;;;20.60;41.00;;;;;;4981836;28;20525;-82
2022/04/27 08:43:45;;;;;;;2.95;1.40;;;20.60;41.00;;;;;;4995337;28;20037;-81
2022/04/27 08:46:14;;;;;;;1.60;1.45;;;20.70;41.00;;;;;;4981167;28;20429;-81
2022/04/27 08:48:39;;;;;;;2.45;1.60;;;20.60;41.00;;;;;;4983408;28;20034;-81
2022/04/27 08:51:05;;;;;;;4.35;1.40;;;20.60;40.90;;;;;;4980100;28;20584;-81
2022/04/27 08:53:32;;;;;;;2.17;1.77;;;20.70;40.90;;;;;;4995136;28;20048;-81
2022/04/27 08:55:58;;;;;;;1.67;1.50;;;20.70;40.80;;;;;;4994214;28;20046;-80
2022/04/27 08:58:24;;;;;;;2.35;1.50;;;20.60;40.70;;;;;;4995502;28;20056;-81
2022/04/27 09:00:50;;;;;;;2.50;1.50;;;20.70;40.70;;;;;;4998608;28;20052;-81
2022/04/27 09:03:31;;;;;;;2.47;1.25;;;20.60;40.70;;;;;;4994113;28;20394;-81
2022/04/27 09:06:03;;;;;;;4.50;1.50;;;20.70;40.70;;;;;;5002282;28;20038;-84
2022/04/27 09:08:43;;;;;;;2.42;1.48;;;20.70;40.80;;;;;;5011446;28;20121;-80
2022/04/27 09:11:23;;;;;;;4.80;1.80;;;20.70;40.90;;;;;;4993840;28;20092;-81
2022/04/27 09:13:55;;;;;;;4.70;1.77;;;20.60;40.80;;;;;;5011264;28;20043;-81
2022/04/27 09:16:26;;;;;;;2.28;1.20;;;20.70;40.80;;;;;;4978999;28;20058;-85
2022/04/27 09:21:53;;;;;;;3.03;1.45;;;20.70;40.70;;;;;;5013727;28;20421;-84
2022/04/27 09:24:19;;;;;;;4.32;1.58;;;20.60;40.60;;;;;;4976521;28;20046;-82
2022/04/27 09:26:45;;;;;;;4.18;1.27;;;20.60;40.70;;;;;;4976595;28;20054;-83
2022/04/27 09:29:27;;;;;;;7.65;1.73;;;20.70;40.80;;;;;;4980203;28;20049;-82
2022/04/27 09:31:58;;;;;;;2.95;1.60;;;20.70;40.90;;;;;;5012069;28;20048;-82
2022/04/27 09:34:28;;;;;;;3.58;1.30;;;20.70;41.00;;;;;;4980193;28;20374;-85
2022/04/27 09:37:14;;;;;;;4.60;1.50;;;20.70;40.90;;;;;;4984412;28;20443;-84
2022/04/27 09:39:40;;;;;;;4.47;1.63;;;20.70;40.90;;;;;;4994143;28;20128;-87
2022/04/27 09:42:10;;;;;;;5.50;1.33;;;20.70;40.90;;;;;;4994113;28;20039;-84
2022/04/27 09:44:37;;;;;;;3.83;1.58;;;20.70;41.00;;;;;;4992603;28;20903;-86
2022/04/27 09:47:04;;;;;;;3.60;1.45;;;20.70;41.20;;;;;;4996047;28;20049;-84
2022/04/27 09:49:36;;;;;;;3.08;1.33;;;20.70;41.30;;;;;;4993154;28;20670;-83
2022/04/27 09:52:04;;;;;;;6.78;1.52;;;20.70;41.50;;;;;;4994832;28;20117;-87
2022/04/27 09:54:34;;;;;;;5.80;1.77;;;20.70;40.70;;;;;;4977976;28;20477;-85
2022/04/27 09:57:05;;;;;;;3.13;1.48;;;20.70;40.90;;;;;;4994058;28;20038;-83
2022/04/27 09:59:32;;;;;;;6.22;1.52;;;20.70;40.70;;;;;;4976155;28;20038;-82
2022/04/27 10:02:14;;;;;;;2.45;1.30;;;20.70;40.60;;;;;;4993872;28;20088;-82
2022/04/27 10:04:40;;;;;;;4.35;1.45;;;20.70;40.80;;;;;;4999324;28;20046;-82
2022/04/27 10:07:10;;;;;;;4.75;1.40;;;20.70;40.80;;;;;;4984949;28;20393;-83
2022/04/27 10:09:35;;;;;;;3.45;1.20;;;20.70;40.70;;;;;;5000182;28;20482;-84
2022/04/27 10:12:03;;;;;;;3.58;1.40;;;20.70;41.50;;;;;;4981015;28;20053;-81
2022/04/27 10:14:30;;;;;;;2.75;1.13;;;20.70;40.70;;;;;;4990905;28;20122;-84
2022/04/27 10:16:57;;;;;;;2.63;1.10;;;20.70;40.70;;;;;;4995191;28;20088;-86
2022/04/27 10:19:23;;;;;;;2.78;1.25;;;20.70;40.70;;;;;;4992834;28;20057;-81
2022/04/27 10:21:57;;;;;;;5.05;1.75;;;20.70;40.70;;;;;;4993232;28;20038;-82
2022/04/27 10:24:35;;;;;;;2.08;1.48;;;20.60;40.60;;;;;;4984942;28;20073;-85
2022/04/27 10:27:35;;;;;;;3.47;1.13;;;20.70;40.40;;;;;;4984189;28;20592;-82
2022/04/27 10:30:08;;;;;;;4.88;1.45;;;20.70;40.40;;;;;;5000699;28;20555;-86
2022/04/27 10:32:38;;;;;;;2.97;1.30;;;20.60;40.40;;;;;;4978377;28;20115;-85
2022/04/27 10:35:19;;;;;;;2.47;1.52;;;20.70;40.20;;;;;;5009423;28;20426;-84
2022/04/27 10:37:58;;;;;;;4.03;1.30;;;20.70;40.30;;;;;;4977328;28;20038;-85
2022/04/27 10:40:31;;;;;;;3.95;1.75;;;20.70;40.30;;;;;;4984577;28;20521;-84
2022/04/27 10:43:09;;;;;;;3.97;1.25;;;20.60;40.30;;;;;;4978492;28;20048;-82
2022/04/27 10:45:38;;;;;;;2.17;1.30;;;20.60;40.30;;;;;;4993769;28;20053;-83
2022/04/27 10:48:07;;;;;;;3.38;1.40;;;20.70;40.40;;;;;;4992340;28;20530;-81
2022/04/27 10:50:36;;;;;;;2.05;1.30;;;20.70;40.30;;;;;;4993447;28;20372;-82
2022/04/27 10:53:19;;;;;;;2.47;1.35;;;20.60;40.30;;;;;;4995785;28;20045;-81
2022/04/27 10:55:51;;;;;;;3.08;1.20;;;20.70;40.10;;;;;;4992315;28;20089;-82
2022/04/27 10:58:30;;;;;;;5.15;1.52;;;20.70;40.00;;;;;;4992149;28;20225;-83
2022/04/27 11:01:05;;;;;;;2.10;1.27;;;20.70;40.20;;;;;;4976964;28;20046;-84
2022/04/27 11:03:35;;;;;;;3.70;1.17;;;20.70;40.20;;;;;;4975930;28;20053;-81
2022/04/27 11:06:08;;;;;;;3.17;1.50;;;20.70;40.10;;;;;;4994196;28;20038;-80
2022/04/27 11:09:02;;;;;;;4.13;1.25;;;20.70;39.90;;;;;;4993860;28;20049;-81
2022/04/27 11:11:28;;;;;;;2.47;1.50;;;20.70;39.80;;;;;;5009599;28;20456;-80
2022/04/27 11:14:03;;;;;;;3.90;1.00;;;20.70;39.80;;;;;;4993774;28;20464;-80
2022/04/27 11:16:29;;;;;;;2.83;1.30;;;20.70;39.90;;;;;;4991339;28;20208;-80
2022/04/27 11:18:56;;;;;;;3.75;1.27;;;20.70;40.00;;;;;;4991977;28;20042;-80
2022/04/27 11:21:24;;;;;;;4.22;1.27;;;20.70;40.00;;;;;;4993689;28;20685;-80
2022/04/27 11:23:51;;;;;;;3.83;1.15;;;20.70;40.00;;;;;;4991780;28;20049;-80
2022/04/27 11:26:17;;;;;;;2.55;1.40;;;20.70;40.00;;;;;;4992003;28;20501;-79
2022/04/27 11:28:45;;;;;;;5.22;1.27;;;20.70;39.90;;;;;;4994079;28;20042;-86
2022/04/27 11:31:13;;;;;;;1.48;1.17;;;20.70;39.60;;;;;;4991885;28;20053;-80
2022/04/27 11:33:40;;;;;;;2.20;1.23;;;20.70;39.60;;;;;;4990495;28;20050;-82
2022/04/27 11:36:26;;;;;;;3.72;1.40;;;20.70;39.10;;;;;;5007529;28;20343;-79
2022/04/27 11:38:52;;;;;;;2.90;1.25;;;20.70;39.00;;;;;;4975766;28;20405;-81
2022/04/27 11:41:20;;;;;;;1.40;1.00;;;20.70;39.00;;;;;;4975989;28;20084;-80
2022/04/27 11:43:46;;;;;;;3.17;1.60;;;20.70;39.00;;;;;;4991458;28;20576;-85
2022/04/27 11:46:12;;;;;;;3.22;1.23;;;20.70;38.80;;;;;;4977780;28;20046;-80
2022/04/27 11:48:38;;;;;;;2.42;1.40;;;20.70;38.80;;;;;;4984118;28;20573;-77
2022/04/27 11:51:06;;;;;;;2.67;1.27;;;20.70;38.60;;;;;;4996833;28;20537;-79
2022/04/27 11:53:42;;;;;;;3.15;1.20;;;20.70;38.50;;;;;;4986510;28;20033;-80
2022/04/27 11:56:09;;;;;;;4.50;1.48;;;20.70;38.30;;;;;;4996438;28;20093;-81
2022/04/27 11:58:34;;;;;;;3.42;1.70;;;20.60;38.30;;;;;;4992516;28;20497;-78
2022/04/27 12:01:01;;;;;;;3.63;1.50;;;20.60;38.00;;;;;;4978730;28;20048;-79
2022/04/27 12:03:29;;;;;;;3.95;1.30;;;20.60;38.20;;;;;;4979046;28;20038;-79
2022/04/27 12:05:55;;;;;;;3.03;1.42;;;20.60;38.30;;;;;;4993888;28;20038;-79
2022/04/27 12:08:24;;;;;;;2.78;1.30;;;20.60;38.30;;;;;;5000704;28;20049;-79
2022/04/27 12:10:49;;;;;;;3.05;1.30;;;20.60;38.40;;;;;;4995310;28;20053;-79
2022/04/27 12:13:17;;;;;;;2.63;1.50;;;20.60;38.30;;;;;;4995739;28;20042;-79
2022/04/27 12:15:47;;;;;;;2.05;1.27;;;20.60;38.20;;;;;;4983325;28;20034;-78
2022/04/27 12:18:16;;;;;;;2.00;1.48;;;20.60;38.30;;;;;;4985402;28;20120;-78
2022/04/27 12:20:44;;;;;;;5.18;1.77;;;20.60;38.20;;;;;;4996697;28;20045;-79
2022/04/27 12:23:11;;;;;;;3.20;1.42;;;20.60;38.30;;;;;;4993406;28;20128;-80
2022/04/27 12:25:46;;;;;;;2.70;1.25;;;20.60;38.30;;;;;;4995487;28;20041;-79
2022/04/27 12:28:16;;;;;;;2.67;1.20;;;20.60;38.50;;;;;;4993546;28;20192;-79
2022/04/27 12:30:43;;;;;;;2.55;1.30;;;20.60;38.70;;;;;;4979930;28;20038;-80
2022/04/27 12:33:12;;;;;;;2.20;1.38;;;20.60;38.90;;;;;;4984513;28;20038;-80
2022/04/27 12:38:30;;;;;;;3.03;1.50;;;20.60;39.20;;;;;;4994210;28;20748;-79
2022/04/27 12:40:58;;;;;;;6.68;1.60;;;20.60;39.30;;;;;;4978794;28;20112;-79
2022/04/27 12:43:24;;;;;;;3.70;1.45;;;20.60;39.40;;;;;;4996974;28;20058;-79
2022/04/27 12:46:07;;;;;;;4.35;1.48;;;20.70;39.50;;;;;;4994915;28;20034;-79
2022/04/27 12:48:35;;;;;;;4.40;1.52;;;20.70;39.60;;;;;;4994715;28;20038;-81
2022/04/27 12:51:02;;;;;;;3.05;1.50;;;20.70;39.60;;;;;;5010610;28;20050;-79
2022/04/27 12:53:27;;;;;;;4.28;1.50;;;20.70;39.50;;;;;;4982637;28;20053;-79
2022/04/27 12:56:05;;;;;;;3.80;1.92;;;20.70;39.50;;;;;;4978024;28;20418;-79
2022/04/27 12:58:32;;;;;;;4.03;1.40;;;20.70;39.30;;;;;;4984506;28;20053;-79
2022/04/27 13:00:58;;;;;;;3.85;2.00;;;20.70;39.30;;;;;;4980440;28;20139;-79
2022/04/27 13:03:25;;;;;;;3.67;1.35;;;20.70;39.20;;;;;;4992909;28;20048;-79
2022/04/27 13:05:51;;;;;;;3.30;1.70;;;20.60;39.10;;;;;;4985674;28;20054;-79
2022/04/27 13:08:17;;;;;;;3.25;2.08;;;20.70;39.20;;;;;;4986541;28;20049;-79